createdAt,value
2016-03-23T00:00:42.251Z,0
2016-03-23T00:01:42.284Z,0
2016-03-23T00:02:42.271Z,0
2016-03-23T00:03:42.289Z,0
2016-03-23T00:04:42.307Z,0
2016-03-23T00:05:42.325Z,0
2016-03-23T00:06:42.345Z,0
2016-03-23T00:07:42.362Z,0
2016-03-23T00:08:42.396Z,0
2016-03-23T00:09:42.399Z,0
2016-03-23T00:10:42.417Z,0
2016-03-23T00:11:42.451Z,0
2016-03-23T00:12:42.453Z,0
2016-03-23T00:13:42.816Z,0
2016-03-23T00:14:42.475Z,0
2016-03-23T00:15:42.508Z,0
2016-03-23T00:16:42.528Z,0
2016-03-23T00:17:42.530Z,0
2016-03-23T00:18:42.564Z,0
2016-03-23T00:19:42.582Z,0
2016-03-23T00:20:42.600Z,0
2016-03-23T00:21:42.650Z,0
2016-03-23T00:22:42.637Z,0
2016-03-23T00:23:42.641Z,0
2016-03-23T00:24:42.674Z,0
2016-03-23T00:25:42.677Z,0
2016-03-23T00:26:42.695Z,0
2016-03-23T00:27:42.713Z,0
2016-03-23T00:28:42.701Z,0
2016-03-23T00:29:42.749Z,0
2016-03-23T00:30:42.772Z,0
2016-03-23T00:31:42.805Z,0
2016-03-23T00:32:42.839Z,0
2016-03-23T00:33:42.841Z,0
2016-03-23T00:34:42.829Z,0
2016-03-23T00:35:42.846Z,0
2016-03-23T00:36:42.693Z,0
2016-03-23T00:37:42.899Z,0
2016-03-23T00:38:42.902Z,0
2016-03-23T00:39:42.936Z,0
2016-03-23T00:40:42.939Z,0
2016-03-23T00:41:42.973Z,0
2016-03-23T00:42:42.975Z,0
2016-03-23T00:43:43.072Z,0
2016-03-23T00:44:43.011Z,0
2016-03-23T00:45:43.030Z,0
2016-03-23T00:46:43.048Z,0
2016-03-23T00:47:43.066Z,0
2016-03-23T00:48:43.086Z,0
2016-03-23T00:49:43.088Z,0
2016-03-23T00:50:43.122Z,0
2016-03-23T00:51:43.125Z,0
2016-03-23T00:52:43.158Z,0
2016-03-23T00:53:43.177Z,0
2016-03-23T00:54:43.179Z,0
2016-03-23T00:55:43.198Z,0
2016-03-23T00:56:43.232Z,0
2016-03-23T00:57:43.234Z,0
2016-03-23T00:58:43.627Z,0
2016-03-23T00:59:43.302Z,0
2016-03-23T01:00:43.289Z,0
2016-03-23T01:01:43.308Z,0
2016-03-23T01:02:43.327Z,0
2016-03-23T01:03:43.360Z,0
2016-03-23T01:04:43.362Z,0
2016-03-23T01:05:43.396Z,0
2016-03-23T01:06:43.259Z,0
2016-03-23T01:07:43.464Z,0
2016-03-23T01:08:43.435Z,0
2016-03-23T01:09:43.484Z,0
2016-03-23T01:10:43.457Z,0
2016-03-23T01:11:43.506Z,0
2016-03-23T01:12:43.493Z,0
2016-03-23T01:13:43.606Z,0
2016-03-23T01:14:43.545Z,0
2016-03-23T01:15:43.548Z,0
2016-03-23T01:16:43.598Z,0
2016-03-23T01:20:04.418Z,0
2016-03-23T01:21:01.406Z,0
2016-03-23T01:22:01.424Z,0
2016-03-23T01:23:01.442Z,0
2016-03-23T01:24:01.461Z,0
2016-03-23T01:25:01.494Z,0
2016-03-23T01:26:01.544Z,0
2016-03-23T01:27:01.516Z,0
2016-03-23T01:28:01.581Z,0
2016-03-23T01:29:01.552Z,0
2016-03-23T01:30:01.585Z,0
2016-03-23T01:31:01.589Z,0
2016-03-23T01:32:01.622Z,0
2016-03-23T01:33:01.641Z,0
2016-03-23T01:34:01.644Z,0
2016-03-23T01:35:01.522Z,0
2016-03-23T01:36:01.680Z,0
2016-03-23T01:37:01.682Z,0
2016-03-23T01:38:01.701Z,0
2016-03-23T01:39:01.720Z,0
2016-03-23T01:40:01.738Z,0
2016-03-23T01:41:01.756Z,0
2016-03-23T01:42:01.774Z,0
2016-03-23T01:43:01.793Z,0
2016-03-23T01:44:01.639Z,0
2016-03-23T01:45:01.829Z,0
2016-03-23T01:46:01.864Z,0
2016-03-23T01:47:01.866Z,0
2016-03-23T01:48:01.962Z,0
2016-03-23T01:49:01.903Z,0
2016-03-23T01:50:01.936Z,0
2016-03-23T01:51:01.939Z,0
2016-03-23T01:52:01.958Z,0
2016-03-23T01:53:01.961Z,0
2016-03-23T01:54:01.978Z,0
2016-03-23T01:55:01.997Z,0
2016-03-23T01:56:02.016Z,0
2016-03-23T01:57:02.033Z,0
2016-03-23T01:58:02.052Z,0
2016-03-23T01:59:02.257Z,0
2016-03-23T02:00:02.089Z,0
2016-03-23T02:01:02.107Z,0
2016-03-23T02:02:02.140Z,0
2016-03-23T02:03:02.144Z,0
2016-03-23T02:04:02.162Z,0
2016-03-23T02:05:02.196Z,0
2016-03-23T02:06:02.199Z,0
2016-03-23T02:07:02.202Z,0
2016-03-23T02:08:02.266Z,0
2016-03-23T02:09:02.307Z,0
2016-03-23T02:10:02.276Z,0
2016-03-23T02:11:02.381Z,0
2016-03-23T02:12:02.297Z,0
2016-03-23T02:13:02.301Z,0
2016-03-23T02:14:02.740Z,0
2016-03-23T02:15:02.337Z,0
2016-03-23T02:16:02.355Z,0
2016-03-23T02:17:02.373Z,0
2016-03-23T02:18:02.392Z,0
2016-03-23T02:19:02.410Z,0
2016-03-23T02:20:02.428Z,0
2016-03-23T02:21:02.453Z,0
2016-03-23T02:22:02.503Z,0
2016-03-23T02:23:02.473Z,0
2016-03-23T02:24:02.508Z,0
2016-03-23T02:25:02.510Z,0
2016-03-23T02:26:02.514Z,0
2016-03-23T02:27:02.547Z,0
2016-03-23T02:28:02.580Z,0
2016-03-23T02:29:02.708Z,0
2016-03-23T02:30:02.586Z,0
2016-03-23T02:31:02.604Z,0
2016-03-23T02:32:02.623Z,0
2016-03-23T02:33:02.657Z,0
2016-03-23T02:34:02.660Z,0
2016-03-23T02:35:02.693Z,0
2016-03-23T02:36:02.680Z,0
2016-03-23T02:37:02.699Z,0
2016-03-23T02:38:02.716Z,0
2016-03-23T02:39:02.751Z,0
2016-03-23T02:40:02.753Z,0
2016-03-23T02:41:02.772Z,0
2016-03-23T02:42:02.790Z,0
2016-03-23T02:43:02.809Z,0
2016-03-23T02:44:02.890Z,0
2016-03-23T02:45:02.845Z,0
2016-03-23T02:46:02.863Z,0
2016-03-23T02:47:02.881Z,0
2016-03-23T02:48:02.901Z,0
2016-03-23T02:49:02.918Z,0
2016-03-23T02:50:02.796Z,0
2016-03-23T02:51:02.986Z,0
2016-03-23T02:52:02.973Z,0
2016-03-23T02:53:02.976Z,0
2016-03-23T02:54:02.994Z,0
2016-03-23T02:55:03.013Z,0
2016-03-23T02:56:03.015Z,0
2016-03-23T02:57:03.034Z,0
2016-03-23T02:58:03.053Z,0
2016-03-23T02:59:03.258Z,0
2016-03-23T03:00:03.089Z,0
2016-03-23T03:01:03.107Z,0
2016-03-23T03:02:03.141Z,0
2016-03-23T03:03:03.144Z,0
2016-03-23T03:04:03.177Z,0
2016-03-23T03:05:03.196Z,0
2016-03-23T03:06:03.214Z,0
2016-03-23T03:07:03.045Z,0
2016-03-23T03:08:03.235Z,0
2016-03-23T03:09:03.254Z,0
2016-03-23T03:10:03.257Z,0
2016-03-23T03:11:03.275Z,0
2016-03-23T03:12:03.293Z,0
2016-03-23T03:13:03.310Z,0
2016-03-23T03:14:03.407Z,0
2016-03-23T03:15:03.348Z,0
2016-03-23T03:16:03.365Z,0
2016-03-23T03:17:03.385Z,0
2016-03-23T03:18:03.418Z,0
2016-03-23T03:19:03.420Z,0
2016-03-23T03:20:03.439Z,0
2016-03-23T03:21:03.457Z,0
2016-03-23T03:22:03.476Z,0
2016-03-23T03:23:03.478Z,0
2016-03-23T03:24:03.497Z,0
2016-03-23T03:25:03.531Z,0
2016-03-23T03:26:03.533Z,0
2016-03-23T03:27:03.552Z,0
2016-03-23T03:28:03.555Z,0
2016-03-23T03:29:03.636Z,0
2016-03-23T03:30:03.591Z,0
2016-03-23T03:31:03.720Z,0
2016-03-23T03:32:03.644Z,0
2016-03-23T03:33:03.663Z,0
2016-03-23T03:34:03.681Z,0
2016-03-23T03:35:03.949Z,0
2016-03-23T03:36:03.686Z,0
2016-03-23T03:37:03.705Z,0
2016-03-23T03:38:03.723Z,0
2016-03-23T03:39:03.741Z,0
2016-03-23T03:40:03.759Z,0
2016-03-23T03:41:03.778Z,0
2016-03-23T03:42:03.077Z,0
2016-03-23T03:43:03.815Z,0
2016-03-23T03:44:04.052Z,0
2016-03-23T03:45:03.852Z,0
2016-03-23T03:46:03.854Z,0
2016-03-23T03:47:03.982Z,0
2016-03-23T03:48:03.891Z,0
2016-03-23T03:49:03.908Z,0
2016-03-23T03:50:03.927Z,0
2016-03-23T03:51:03.946Z,0
2016-03-23T03:52:03.963Z,0
2016-03-23T03:53:03.982Z,0
2016-03-23T03:54:04.001Z,0
2016-03-23T03:55:04.035Z,0
2016-03-23T03:56:04.037Z,0
2016-03-23T03:57:04.055Z,0
2016-03-23T03:58:04.074Z,0
2016-03-23T03:59:04.107Z,0
2016-03-23T04:00:04.095Z,0
2016-03-23T04:01:04.113Z,0
2016-03-23T04:02:04.131Z,0
2016-03-23T04:03:04.150Z,0
2016-03-23T04:04:03.434Z,0
2016-03-23T04:05:04.187Z,0
2016-03-23T04:06:04.204Z,0
2016-03-23T04:07:04.223Z,0
2016-03-23T04:08:04.209Z,0
2016-03-23T04:09:04.228Z,0
2016-03-23T04:10:04.278Z,0
2016-03-23T04:11:04.296Z,0
2016-03-23T04:12:04.300Z,0
2016-03-23T04:13:04.317Z,0
2016-03-23T04:14:04.336Z,0
2016-03-23T04:15:04.338Z,0
2016-03-23T04:16:04.356Z,0
2016-03-23T04:17:04.375Z,0
2016-03-23T04:18:04.393Z,0
2016-03-23T04:19:04.411Z,0
2016-03-23T04:20:04.429Z,0
2016-03-23T04:21:04.448Z,0
2016-03-23T04:22:04.466Z,0
2016-03-23T04:23:04.499Z,0
2016-03-23T04:24:04.502Z,0
2016-03-23T04:25:04.505Z,0
2016-03-23T04:26:04.523Z,0
2016-03-23T04:27:04.557Z,0
2016-03-23T04:28:04.560Z,0
2016-03-23T04:29:04.640Z,0
2016-03-23T04:30:04.597Z,0
2016-03-23T04:31:04.615Z,0
2016-03-23T04:32:04.618Z,0
2016-03-23T04:33:04.636Z,0
2016-03-23T04:34:04.654Z,0
2016-03-23T04:35:04.673Z,0
2016-03-23T04:36:04.691Z,0
2016-03-23T04:37:04.741Z,0
2016-03-23T04:38:05.322Z,0
2016-03-23T04:39:04.684Z,0
2016-03-23T04:40:04.858Z,0
2016-03-23T04:41:04.845Z,0
2016-03-23T04:42:04.786Z,0
2016-03-23T04:43:04.836Z,0
2016-03-23T04:44:04.853Z,0
2016-03-23T04:45:04.841Z,0
2016-03-23T04:46:04.891Z,0
2016-03-23T04:47:04.861Z,0
2016-03-23T04:48:04.927Z,0
2016-03-23T04:49:04.930Z,0
2016-03-23T04:50:04.964Z,0
2016-03-23T04:51:04.935Z,0
2016-03-23T04:52:04.968Z,0
2016-03-23T04:53:04.972Z,0
2016-03-23T04:54:04.990Z,0
2016-03-23T04:55:05.008Z,0
2016-03-23T04:56:05.027Z,0
2016-03-23T04:57:05.045Z,0
2016-03-23T04:58:05.110Z,0
2016-03-23T04:59:05.081Z,0
2016-03-23T05:00:05.100Z,0
2016-03-23T05:01:05.102Z,0
2016-03-23T05:02:05.137Z,0
2016-03-23T05:03:05.123Z,0
2016-03-23T05:04:05.173Z,0
2016-03-23T05:05:05.175Z,0
2016-03-23T05:06:05.195Z,0
2016-03-23T05:07:05.243Z,0
2016-03-23T05:08:05.231Z,0
2016-03-23T05:09:05.280Z,0
2016-03-23T05:10:05.251Z,0
2016-03-23T05:11:05.286Z,0
2016-03-23T05:12:05.288Z,0
2016-03-23T05:13:05.322Z,0
2016-03-23T05:14:05.371Z,0
2016-03-23T05:15:05.344Z,0
2016-03-23T05:16:05.358Z,0
2016-03-23T05:17:05.367Z,0
2016-03-23T05:18:05.374Z,0
2016-03-23T05:19:05.366Z,0
2016-03-23T05:20:05.391Z,0
2016-03-23T05:21:05.400Z,0
2016-03-23T05:22:05.415Z,0
2016-03-23T05:23:05.414Z,0
2016-03-23T05:24:05.429Z,0
2016-03-23T05:25:05.460Z,0
2016-03-23T05:26:05.460Z,0
2016-03-23T05:27:05.492Z,0
2016-03-23T05:28:05.509Z,0
2016-03-23T05:29:05.557Z,0
2016-03-23T05:30:05.526Z,0
2016-03-23T05:31:05.527Z,0
2016-03-23T05:32:05.546Z,0
2016-03-23T05:33:05.580Z,0
2016-03-23T05:34:05.582Z,0
2016-03-23T05:35:05.615Z,0
2016-03-23T05:36:05.634Z,0
2016-03-23T05:37:05.636Z,0
2016-03-23T05:38:05.639Z,0
2016-03-23T05:39:05.657Z,0
2016-03-23T05:40:05.691Z,0
2016-03-23T05:41:05.694Z,0
2016-03-23T05:42:05.727Z,0
2016-03-23T05:43:05.746Z,0
2016-03-23T05:44:05.763Z,0
2016-03-23T05:45:05.782Z,0
2016-03-23T05:46:05.769Z,0
2016-03-23T05:47:05.788Z,0
2016-03-23T05:48:05.807Z,0
2016-03-23T05:49:05.824Z,0
2016-03-23T05:50:05.843Z,0
2016-03-23T05:51:05.861Z,0
2016-03-23T05:52:05.879Z,0
2016-03-23T05:53:05.913Z,0
2016-03-23T05:54:05.932Z,0
2016-03-23T05:55:05.950Z,5
2016-03-23T05:56:05.938Z,5
2016-03-23T05:57:05.971Z,5
2016-03-23T05:58:05.990Z,5
2016-03-23T05:59:06.009Z,5
2016-03-23T06:00:06.026Z,5
2016-03-23T06:01:06.029Z,5
2016-03-23T06:02:06.047Z,5
2016-03-23T06:03:06.065Z,5
2016-03-23T06:04:06.100Z,5
2016-03-23T06:05:06.102Z,5
2016-03-23T06:06:06.105Z,5
2016-03-23T06:07:06.137Z,5
2016-03-23T06:08:06.051Z,5
2016-03-23T06:09:06.163Z,5
2016-03-23T06:10:06.198Z,5
2016-03-23T06:11:06.201Z,5
2016-03-23T06:12:06.234Z,5
2016-03-23T06:13:06.253Z,5
2016-03-23T06:14:06.271Z,5
2016-03-23T06:15:06.273Z,5
2016-03-23T06:16:06.276Z,10
2016-03-23T06:17:06.294Z,10
2016-03-23T06:18:06.312Z,10
2016-03-23T06:19:06.331Z,10
2016-03-23T06:20:06.350Z,10
2016-03-23T06:21:06.368Z,10
2016-03-23T06:22:06.386Z,10
2016-03-23T06:23:06.405Z,10
2016-03-23T06:24:06.422Z,10
2016-03-23T06:25:06.441Z,10
2016-03-23T06:26:06.459Z,10
2016-03-23T06:27:06.556Z,10
2016-03-23T06:28:06.496Z,10
2016-03-23T06:29:06.530Z,10
2016-03-23T06:30:06.516Z,10
2016-03-23T06:31:06.535Z,10
2016-03-23T06:32:06.569Z,10
2016-03-23T06:33:06.572Z,10
2016-03-23T06:34:06.591Z,10
2016-03-23T06:35:06.608Z,10
2016-03-23T06:36:06.611Z,10
2016-03-23T06:37:06.645Z,10
2016-03-23T06:38:06.679Z,10
2016-03-23T06:39:06.666Z,10
2016-03-23T06:40:06.700Z,10
2016-03-23T06:41:06.734Z,10
2016-03-23T06:42:06.720Z,10
2016-03-23T06:43:06.739Z,10
2016-03-23T06:44:06.757Z,10
2016-03-23T06:45:06.760Z,15
2016-03-23T06:46:06.795Z,10
2016-03-23T06:47:06.812Z,10
2016-03-23T06:48:06.831Z,10
2016-03-23T06:49:06.833Z,10
2016-03-23T06:50:06.867Z,10
2016-03-23T06:51:06.870Z,10
2016-03-23T06:52:06.888Z,10
2016-03-23T06:53:06.922Z,15
2016-03-23T06:54:06.941Z,15
2016-03-23T06:55:06.944Z,15
2016-03-23T06:56:06.978Z,15
2016-03-23T06:57:07.043Z,15
2016-03-23T06:58:06.858Z,15
2016-03-23T06:59:07.033Z,15
2016-03-23T07:00:07.036Z,15
2016-03-23T07:01:07.053Z,15
2016-03-23T07:02:07.056Z,15
2016-03-23T07:03:07.075Z,15
2016-03-23T07:04:07.093Z,10
2016-03-23T07:05:06.955Z,15
2016-03-23T07:06:07.129Z,15
2016-03-23T07:07:07.148Z,15
2016-03-23T07:08:07.181Z,15
2016-03-23T07:09:07.169Z,15
2016-03-23T07:10:07.187Z,15
2016-03-23T07:11:07.221Z,15
2016-03-23T07:12:07.240Z,15
2016-03-23T07:13:07.257Z,15
2016-03-23T07:14:07.292Z,15
2016-03-23T07:15:07.294Z,15
2016-03-23T07:16:07.343Z,15
2016-03-23T07:17:07.315Z,15
2016-03-23T07:18:07.333Z,15
2016-03-23T07:19:07.367Z,15
2016-03-23T07:20:07.386Z,15
2016-03-23T07:21:07.388Z,15
2016-03-23T07:22:07.406Z,20
2016-03-23T07:23:07.425Z,15
2016-03-23T07:24:07.444Z,15
2016-03-23T07:25:07.462Z,10
2016-03-23T07:26:07.480Z,10
2016-03-23T07:27:07.498Z,10
2016-03-23T07:28:07.516Z,10
2016-03-23T07:29:07.550Z,10
2016-03-23T07:30:07.553Z,10
2016-03-23T07:31:07.556Z,15
2016-03-23T07:32:07.590Z,20
2016-03-23T07:33:07.608Z,20
2016-03-23T07:34:07.611Z,20
2016-03-23T07:35:07.629Z,15
2016-03-23T07:36:07.647Z,20
2016-03-23T07:37:07.682Z,20
2016-03-23T07:38:07.699Z,15
2016-03-23T07:39:07.718Z,20
2016-03-23T07:40:07.720Z,20
2016-03-23T07:41:07.754Z,20
2016-03-23T07:42:07.788Z,20
2016-03-23T07:43:07.790Z,20
2016-03-23T07:44:07.810Z,20
2016-03-23T07:45:07.812Z,20
2016-03-23T07:46:07.846Z,20
2016-03-23T07:47:07.865Z,20
2016-03-23T07:48:07.867Z,20
2016-03-23T07:49:07.886Z,20
2016-03-23T07:50:07.889Z,25
2016-03-23T07:51:07.922Z,25
2016-03-23T07:52:07.925Z,25
2016-03-23T07:53:07.958Z,25
2016-03-23T07:54:07.977Z,25
2016-03-23T07:55:07.995Z,20
2016-03-23T07:56:07.997Z,20
2016-03-23T07:57:08.033Z,20
2016-03-23T07:58:08.035Z,25
2016-03-23T07:59:08.053Z,25
2016-03-23T08:00:08.118Z,25
2016-03-23T08:01:08.105Z,25
2016-03-23T08:02:08.124Z,25
2016-03-23T08:03:08.158Z,25
2016-03-23T08:04:08.161Z,30
2016-03-23T08:05:08.194Z,30
2016-03-23T08:06:08.182Z,30
2016-03-23T08:07:08.215Z,30
2016-03-23T08:08:08.218Z,25
2016-03-23T08:09:08.236Z,20
2016-03-23T08:10:08.254Z,20
2016-03-23T08:11:08.288Z,25
2016-03-23T08:12:08.290Z,30
2016-03-23T08:13:08.309Z,30
2016-03-23T08:14:08.343Z,25
2016-03-23T08:15:08.440Z,25
2016-03-23T08:16:08.442Z,25
2016-03-23T08:17:08.398Z,25
2016-03-23T08:18:08.417Z,25
2016-03-23T08:19:08.419Z,25
2016-03-23T08:20:08.454Z,25
2016-03-23T08:21:08.472Z,30
2016-03-23T08:22:08.490Z,35
2016-03-23T08:23:08.492Z,35
2016-03-23T08:24:08.542Z,35
2016-03-23T08:25:08.529Z,35
2016-03-23T08:26:08.547Z,35
2016-03-23T08:27:08.566Z,30
2016-03-23T08:28:08.584Z,30
2016-03-23T08:29:08.602Z,30
2016-03-23T08:30:08.700Z,30
2016-03-23T08:31:08.655Z,30
2016-03-23T08:32:08.642Z,30
2016-03-23T08:33:08.675Z,30
2016-03-23T08:34:08.710Z,30
2016-03-23T08:35:08.713Z,30
2016-03-23T08:36:08.730Z,25
2016-03-23T08:37:08.749Z,25
2016-03-23T08:38:08.813Z,25
2016-03-23T08:39:08.786Z,20
2016-03-23T08:40:08.804Z,20
2016-03-23T08:41:08.822Z,25
2016-03-23T08:42:08.825Z,30
2016-03-23T08:43:08.843Z,35
2016-03-23T08:44:08.861Z,35
2016-03-23T08:45:09.068Z,35
2016-03-23T08:46:08.914Z,35
2016-03-23T08:47:08.948Z,30
2016-03-23T08:48:08.965Z,30
2016-03-23T08:49:08.968Z,25
2016-03-23T08:50:09.003Z,25
2016-03-23T08:51:09.020Z,25
2016-03-23T08:52:09.056Z,30
2016-03-23T08:53:09.042Z,30
2016-03-23T08:54:09.060Z,25
2016-03-23T08:55:09.078Z,25
2016-03-23T08:56:09.112Z,30
2016-03-23T08:57:09.115Z,25
2016-03-23T08:58:09.149Z,35
2016-03-23T08:59:09.152Z,35
2016-03-23T09:00:09.170Z,35
2016-03-23T09:01:09.188Z,40
2016-03-23T09:02:09.208Z,35
2016-03-23T09:03:09.241Z,35
2016-03-23T09:04:08.509Z,30
2016-03-23T09:05:09.261Z,20
2016-03-23T09:06:09.311Z,20
2016-03-23T09:07:09.299Z,15
2016-03-23T09:08:09.332Z,10
2016-03-23T09:09:09.351Z,10
2016-03-23T09:10:09.368Z,10
2016-03-23T09:11:09.388Z,5
2016-03-23T09:12:09.390Z,5
2016-03-23T09:13:09.424Z,5
2016-03-23T09:14:09.442Z,5
2016-03-23T09:15:09.507Z,10
2016-03-23T09:16:09.510Z,10
2016-03-23T09:17:09.498Z,10
2016-03-23T09:18:09.500Z,10
2016-03-23T09:19:09.534Z,10
2016-03-23T09:20:08.848Z,15
2016-03-23T09:21:09.586Z,20
2016-03-23T09:22:09.604Z,20
2016-03-23T09:23:09.622Z,20
2016-03-23T09:24:09.626Z,20
2016-03-23T09:25:09.659Z,25
2016-03-23T09:26:09.661Z,30
2016-03-23T09:27:09.680Z,30
2016-03-23T09:28:08.948Z,35
2016-03-23T09:29:09.701Z,35
2016-03-23T09:30:09.094Z,35
2016-03-23T09:31:09.753Z,35
2016-03-23T09:32:09.788Z,40
2016-03-23T09:33:09.805Z,40
2016-03-23T09:34:09.825Z,40
2016-03-23T09:35:09.842Z,40
2016-03-23T09:36:09.876Z,35
2016-03-23T09:37:09.879Z,35
2016-03-23T09:38:09.913Z,40
2016-03-23T09:39:09.916Z,40
2016-03-23T09:40:09.934Z,40
2016-03-23T09:41:09.952Z,45
2016-03-23T09:42:09.940Z,45
2016-03-23T09:43:09.988Z,45
2016-03-23T09:44:10.039Z,40
2016-03-23T09:45:09.916Z,35
2016-03-23T09:46:10.044Z,45
2016-03-23T09:47:10.047Z,45
2016-03-23T09:48:10.081Z,45
2016-03-23T09:49:10.099Z,45
2016-03-23T09:50:10.117Z,40
2016-03-23T09:51:10.150Z,40
2016-03-23T09:52:10.169Z,40
2016-03-23T09:53:10.187Z,40
2016-03-23T09:54:10.237Z,40
2016-03-23T09:55:10.225Z,40
2016-03-23T09:56:10.243Z,40
2016-03-23T09:57:10.261Z,45
2016-03-23T09:58:10.263Z,45
2016-03-23T09:59:10.282Z,45
2016-03-23T10:00:10.331Z,45
2016-03-23T10:01:10.333Z,45
2016-03-23T10:02:10.368Z,45
2016-03-23T10:03:10.371Z,40
2016-03-23T10:04:10.405Z,45
2016-03-23T10:05:10.408Z,45
2016-03-23T10:06:10.441Z,45
2016-03-23T10:07:10.678Z,45
2016-03-23T10:08:10.462Z,40
2016-03-23T10:09:10.481Z,40
2016-03-23T10:10:10.499Z,40
2016-03-23T10:11:10.518Z,45
2016-03-23T10:12:10.551Z,40
2016-03-23T10:13:10.554Z,35
2016-03-23T10:14:10.572Z,30
2016-03-23T10:15:10.699Z,30
2016-03-23T10:16:10.625Z,35
2016-03-23T10:17:10.643Z,35
2016-03-23T10:18:10.661Z,35
2016-03-23T10:19:10.696Z,35
2016-03-23T10:20:10.792Z,45
2016-03-23T10:21:10.826Z,45
2016-03-23T10:22:10.750Z,40
2016-03-23T10:23:10.768Z,40
2016-03-23T10:24:10.770Z,40
2016-03-23T10:25:10.806Z,45
2016-03-23T10:26:10.823Z,40
2016-03-23T10:27:10.856Z,40
2016-03-23T10:28:10.859Z,45
2016-03-23T10:29:10.862Z,45
2016-03-23T10:30:10.850Z,45
2016-03-23T10:31:10.930Z,45
2016-03-23T10:32:10.933Z,45
2016-03-23T10:33:10.952Z,40
2016-03-23T10:34:10.985Z,35
2016-03-23T10:35:11.004Z,35
2016-03-23T10:36:11.022Z,40
2016-03-23T10:37:11.040Z,45
2016-03-23T10:38:11.058Z,45
2016-03-23T10:39:11.093Z,50
2016-03-23T10:40:11.111Z,50
2016-03-23T10:41:11.129Z,45
2016-03-23T10:42:11.132Z,45
2016-03-23T10:43:11.150Z,40
2016-03-23T10:44:11.184Z,45
2016-03-23T10:45:11.344Z,50
2016-03-23T10:46:11.221Z,50
2016-03-23T10:47:11.255Z,50
2016-03-23T10:48:11.101Z,55
2016-03-23T10:49:11.307Z,55
2016-03-23T10:50:11.309Z,55
2016-03-23T10:51:11.359Z,50
2016-03-23T10:52:11.362Z,50
2016-03-23T10:53:11.364Z,45
2016-03-23T10:54:11.539Z,45
2016-03-23T10:55:11.401Z,40
2016-03-23T10:56:11.420Z,35
2016-03-23T10:57:11.437Z,40
2016-03-23T10:58:11.440Z,35
2016-03-23T10:59:11.506Z,35
2016-03-23T11:00:11.508Z,35
2016-03-23T11:01:11.516Z,30
2016-03-23T11:02:11.550Z,20
2016-03-23T11:03:11.569Z,30
2016-03-23T11:04:11.586Z,30
2016-03-23T11:05:11.605Z,25
2016-03-23T11:06:11.623Z,15
2016-03-23T11:07:11.641Z,20
2016-03-23T11:08:11.660Z,20
2016-03-23T11:09:11.694Z,20
2016-03-23T11:10:11.696Z,30
2016-03-23T11:11:11.730Z,20
2016-03-23T11:12:11.733Z,20
2016-03-23T11:13:11.751Z,25
2016-03-23T11:14:11.785Z,30
2016-03-23T11:15:11.834Z,30
2016-03-23T11:16:11.838Z,35
2016-03-23T11:17:11.840Z,35
2016-03-23T11:18:11.873Z,35
2016-03-23T11:19:11.877Z,30
2016-03-23T11:20:11.895Z,25
2016-03-23T11:21:11.929Z,25
2016-03-23T11:22:11.792Z,25
2016-03-23T11:23:11.965Z,30
2016-03-23T11:24:11.984Z,25
2016-03-23T11:25:11.986Z,25
2016-03-23T11:26:12.037Z,20
2016-03-23T11:27:12.039Z,25
2016-03-23T11:28:12.058Z,25
2016-03-23T11:29:12.092Z,25
2016-03-23T11:30:12.141Z,35
2016-03-23T11:31:12.144Z,40
2016-03-23T11:32:12.147Z,45
2016-03-23T11:33:12.181Z,45
2016-03-23T11:34:12.199Z,45
2016-03-23T11:35:12.216Z,40
2016-03-23T11:36:12.236Z,40
2016-03-23T11:37:12.253Z,45
2016-03-23T11:38:12.288Z,55
2016-03-23T11:39:12.305Z,50
2016-03-23T11:40:12.340Z,45
2016-03-23T11:41:12.326Z,40
2016-03-23T11:42:12.361Z,50
2016-03-23T11:43:12.379Z,40
2016-03-23T11:44:12.459Z,30
2016-03-23T11:45:12.415Z,35
2016-03-23T11:46:12.434Z,35
2016-03-23T11:47:12.827Z,30
2016-03-23T11:48:12.861Z,30
2016-03-23T11:49:12.598Z,30
2016-03-23T11:50:12.913Z,20
2016-03-23T11:51:12.525Z,30
2016-03-23T11:52:12.576Z,25
2016-03-23T11:53:12.578Z,20
2016-03-23T11:54:12.612Z,15
2016-03-23T11:55:12.614Z,10
2016-03-23T11:56:12.633Z,20
2016-03-23T11:57:12.651Z,20
2016-03-23T11:58:12.669Z,25
2016-03-23T11:59:12.687Z,25
2016-03-23T12:00:12.706Z,20
2016-03-23T12:01:12.739Z,15
2016-03-23T12:02:12.759Z,15
2016-03-23T12:03:12.761Z,10
2016-03-23T12:04:12.779Z,10
2016-03-23T12:05:12.813Z,10
2016-03-23T12:06:12.831Z,10
2016-03-23T12:07:12.866Z,5
2016-03-23T12:08:12.883Z,10
2016-03-23T12:09:12.902Z,10
2016-03-23T12:10:12.920Z,10
2016-03-23T12:11:12.938Z,10
2016-03-23T12:12:12.957Z,10
2016-03-23T12:13:12.975Z,10
2016-03-23T12:14:13.009Z,10
2016-03-23T12:15:13.027Z,10
2016-03-23T12:16:13.046Z,5
2016-03-23T12:17:12.908Z,10
2016-03-23T12:18:13.082Z,10
2016-03-23T12:19:13.101Z,5
2016-03-23T12:20:13.118Z,5
2016-03-23T12:21:13.169Z,5
2016-03-23T12:22:13.187Z,5
2016-03-23T12:23:13.190Z,5
2016-03-23T12:24:13.208Z,15
2016-03-23T12:25:13.289Z,15
2016-03-23T12:26:13.245Z,15
2016-03-23T12:27:13.278Z,15
2016-03-23T12:28:13.297Z,20
2016-03-23T12:29:13.300Z,20
2016-03-23T12:30:13.333Z,15
2016-03-23T12:31:13.336Z,15
2016-03-23T12:32:13.370Z,20
2016-03-23T12:33:13.372Z,10
2016-03-23T12:34:13.406Z,20
2016-03-23T12:35:13.425Z,20
2016-03-23T12:36:13.444Z,20
2016-03-23T12:37:13.461Z,20
2016-03-23T12:38:13.496Z,20
2016-03-23T12:39:13.530Z,20
2016-03-23T12:40:13.532Z,20
2016-03-23T12:41:13.566Z,25
2016-03-23T12:42:13.584Z,25
2016-03-23T12:43:13.587Z,25
2016-03-23T12:44:13.605Z,25
2016-03-23T12:45:13.607Z,25
2016-03-23T12:46:13.642Z,25
2016-03-23T12:47:13.660Z,35
2016-03-23T12:48:13.678Z,30
2016-03-23T12:49:13.696Z,25
2016-03-23T12:50:13.731Z,35
2016-03-23T12:51:13.764Z,30
2016-03-23T12:52:13.767Z,15
2016-03-23T12:53:13.787Z,15
2016-03-23T12:54:13.835Z,15
2016-03-23T12:55:13.854Z,10
2016-03-23T12:56:13.840Z,5
2016-03-23T12:57:13.843Z,5
2016-03-23T12:58:13.861Z,10
2016-03-23T12:59:13.880Z,10
2016-03-23T13:00:13.914Z,5
2016-03-23T13:01:13.933Z,5
2016-03-23T13:02:13.966Z,5
2016-03-23T13:03:13.984Z,10
2016-03-23T13:04:14.003Z,15
2016-03-23T13:05:14.021Z,15
2016-03-23T13:06:14.039Z,20
2016-03-23T13:07:14.042Z,25
2016-03-23T13:08:13.919Z,30
2016-03-23T13:09:14.095Z,30
2016-03-23T13:10:14.113Z,35
2016-03-23T13:11:14.130Z,30
2016-03-23T13:12:14.149Z,20
2016-03-23T13:13:14.168Z,30
2016-03-23T13:14:14.186Z,25
2016-03-23T13:15:14.204Z,25
2016-03-23T13:16:14.223Z,25
2016-03-23T13:17:14.241Z,25
2016-03-23T13:18:14.274Z,30
2016-03-23T13:19:14.278Z,30
2016-03-23T13:20:14.312Z,25
2016-03-23T13:21:14.314Z,30
2016-03-23T13:22:14.349Z,30
2016-03-23T13:23:14.351Z,30
2016-03-23T13:24:14.400Z,35
2016-03-23T13:25:14.403Z,40
2016-03-23T13:26:14.421Z,45
2016-03-23T13:27:14.439Z,45
2016-03-23T13:28:14.459Z,35
2016-03-23T13:29:14.508Z,25
2016-03-23T13:30:14.511Z,25
2016-03-23T13:31:14.513Z,30
2016-03-23T13:32:14.547Z,30
2016-03-23T13:33:14.564Z,30
2016-03-23T13:34:14.583Z,35
2016-03-23T13:35:14.602Z,30
2016-03-23T13:36:13.886Z,35
2016-03-23T13:37:14.639Z,30
2016-03-23T13:38:14.657Z,35
2016-03-23T13:39:14.691Z,35
2016-03-23T13:40:14.708Z,40
2016-03-23T13:41:14.712Z,35
2016-03-23T13:42:14.730Z,35
2016-03-23T13:43:14.748Z,35
2016-03-23T13:44:14.767Z,40
2016-03-23T13:45:14.801Z,45
2016-03-23T13:46:14.819Z,45
2016-03-23T13:47:14.853Z,45
2016-03-23T13:48:14.855Z,45
2016-03-23T13:49:14.873Z,40
2016-03-23T13:50:14.893Z,25
2016-03-23T13:51:14.910Z,25
2016-03-23T13:52:14.773Z,25
2016-03-23T13:53:14.962Z,20
2016-03-23T13:54:14.965Z,10
2016-03-23T13:55:14.999Z,10
2016-03-23T13:56:15.018Z,10
2016-03-23T13:57:15.036Z,15
2016-03-23T13:58:15.054Z,15
2016-03-23T13:59:15.073Z,10
2016-03-23T14:00:15.107Z,15
2016-03-23T14:01:15.140Z,15
2016-03-23T14:02:15.221Z,15
2016-03-23T14:03:15.162Z,20
2016-03-23T14:04:15.195Z,25
2016-03-23T14:05:15.198Z,25
2016-03-23T14:06:15.217Z,20
2016-03-23T14:07:15.235Z,20
2016-03-23T14:08:15.238Z,20
2016-03-23T14:09:15.272Z,20
2016-03-23T14:10:15.289Z,20
2016-03-23T14:11:15.292Z,20
2016-03-23T14:12:15.310Z,25
2016-03-23T14:13:15.345Z,30
2016-03-23T14:14:15.379Z,25
2016-03-23T14:15:15.382Z,20
2016-03-23T14:16:15.384Z,20
2016-03-23T14:17:15.433Z,25
2016-03-23T14:18:15.452Z,15
2016-03-23T14:19:15.471Z,10
2016-03-23T14:20:15.473Z,10
2016-03-23T14:21:15.490Z,10
2016-03-23T14:22:15.488Z,15
2016-03-23T14:23:15.503Z,25
2016-03-23T14:24:15.516Z,30
2016-03-23T14:25:15.515Z,30
2016-03-23T14:26:15.513Z,35
2016-03-23T14:27:15.517Z,35
2016-03-23T14:28:15.527Z,30
2016-03-23T14:29:15.539Z,20
2016-03-23T14:30:15.550Z,15
2016-03-23T14:31:15.716Z,20
2016-03-23T14:32:15.588Z,15